Prompton, Pennsylvania
Current Conditions -  °F | °C
As of 12:54 PM on Thursday 30 Oct 2014 (Local Time) from KAVP Reporting Station
Overcast Overcast  
Wind Chill: 10°   Ceiling: 3600
Heat Index: 10°   Visibility: 10mi
Dew Point:   Wind: 10mph
Humidity: 54%   Direction: 320°NW
Pressure: 30.03"   Gusts: NA
Location:  41.58°N, 75.33°W
Report Text: KAVP 301654Z 32009KT 10SM OVC036 10/01 A3003 RMK AO2 SLP168 T01000011
Loading
Personal Weather Stations






























Interactive Weather Map
Tropical Storm Tracking
New forecast layout! Learn more

10-Day Weather Forecast

Advertisements
Track Severe Weather on mobile